createdAt,value
2023-05-05T00:00:15.712Z,9.12
2023-05-05T00:01:49.063Z,9.12
2023-05-05T00:03:11.073Z,9.12
2023-05-05T00:04:32.546Z,9.11
2023-05-05T00:05:57.521Z,9.12
2023-05-05T00:07:19.673Z,9.11
2023-05-05T00:08:41.983Z,9.11
2023-05-05T00:10:06.620Z,9.12
2023-05-05T00:11:31.096Z,9.12
2023-05-05T00:12:54.935Z,9.12
2023-05-05T00:14:16.574Z,9.13
2023-05-05T00:15:38.213Z,9.12
2023-05-05T00:17:01.997Z,9.12
2023-05-05T00:18:23.821Z,9.13
2023-05-05T00:19:45.549Z,9.13
2023-05-05T00:21:09.559Z,9.13
2023-05-05T00:22:31.379Z,9.13
2023-05-05T00:24:00.800Z,9.14
2023-05-05T00:25:25.096Z,9.15
2023-05-05T00:26:46.375Z,9.16
2023-05-05T00:28:08.464Z,9.16
2023-05-05T00:29:32.709Z,9.17
2023-05-05T00:31:02.295Z,9.18
2023-05-05T00:32:23.798Z,9.19
2023-05-05T00:33:45.358Z,9.20
2023-05-05T00:35:14.574Z,9.21
2023-05-05T00:36:38.750Z,9.21
2023-05-05T00:38:17.060Z,9.22
2023-05-05T00:39:48.797Z,9.23
2023-05-05T00:41:11.067Z,9.24
2023-05-05T00:42:34.893Z,9.24
2023-05-05T00:43:56.648Z,9.24
2023-05-05T00:45:26.082Z,9.24
2023-05-05T00:46:47.750Z,9.24
2023-05-05T00:48:11.887Z,9.25
2023-05-05T00:49:34.168Z,9.24
2023-05-05T00:50:55.888Z,9.24
2023-05-05T00:52:19.886Z,9.24
2023-05-05T00:53:43.014Z,9.23
2023-05-05T00:55:12.566Z,9.23
2023-05-05T00:56:34.380Z,9.22
2023-05-05T00:57:58.380Z,9.21
2023-05-05T00:59:32.063Z,9.20
2023-05-05T01:00:56.548Z,9.19
2023-05-05T01:02:25.982Z,9.19
2023-05-05T01:03:59.669Z,9.17
2023-05-05T01:05:29.240Z,9.16
2023-05-05T01:07:01.033Z,9.15
2023-05-05T01:08:22.724Z,9.13
2023-05-05T01:09:44.498Z,9.11
2023-05-05T01:11:08.255Z,9.10
2023-05-05T01:12:41.907Z,9.09
2023-05-05T01:14:06.333Z,9.08
2023-05-05T01:15:39.638Z,9.08
2023-05-05T01:17:13.959Z,9.07
2023-05-05T01:18:35.721Z,9.07
2023-05-05T01:20:00.138Z,9.06
2023-05-05T01:21:23.375Z,9.06
2023-05-05T01:22:45.291Z,9.06
2023-05-05T01:24:07.781Z,9.04
2023-05-05T01:25:31.666Z,9.04
2023-05-05T01:26:55.857Z,9.04
2023-05-05T01:28:17.554Z,9.03
2023-05-05T01:29:51.453Z,9.01
2023-05-05T01:31:13.321Z,9.00
2023-05-05T01:32:37.656Z,8.98
2023-05-05T01:34:11.186Z,8.95
2023-05-05T01:35:33.250Z,8.93
2023-05-05T01:37:04.678Z,8.91
2023-05-05T01:38:29.236Z,8.89
2023-05-05T01:39:50.783Z,8.87
2023-05-05T01:41:12.899Z,8.85
2023-05-05T01:42:37.513Z,8.84
2023-05-05T01:44:01.687Z,8.82
2023-05-05T01:45:23.535Z,8.80
2023-05-05T01:46:47.306Z,8.78
2023-05-05T01:48:09.412Z,8.77
2023-05-05T01:49:33.384Z,8.74
2023-05-05T01:50:55.295Z,8.73
2023-05-05T01:52:18.930Z,8.71
2023-05-05T01:53:41.447Z,8.70
2023-05-05T01:55:04.577Z,8.70
2023-05-05T01:56:26.214Z,8.69
2023-05-05T01:57:56.892Z,8.69
2023-05-05T01:59:30.078Z,8.68
2023-05-05T02:01:03.930Z,8.68
2023-05-05T02:02:32.781Z,8.68
2023-05-05T02:03:57.869Z,8.68
2023-05-05T02:05:21.910Z,8.68
2023-05-05T02:06:51.708Z,8.68
2023-05-05T02:08:16.077Z,8.68
2023-05-05T02:09:38.097Z,8.68
2023-05-05T02:11:06.966Z,8.68
2023-05-05T02:12:28.819Z,8.67
2023-05-05T02:13:50.473Z,8.67
2023-05-05T02:15:11.872Z,8.65
2023-05-05T02:16:33.657Z,8.64
2023-05-05T02:17:57.855Z,8.64
2023-05-05T02:19:19.749Z,8.62
2023-05-05T02:20:43.220Z,8.62
2023-05-05T02:22:05.866Z,8.61
2023-05-05T02:23:28.202Z,8.60
2023-05-05T02:24:49.898Z,8.60
2023-05-05T02:26:12.204Z,8.60
2023-05-05T02:27:34.301Z,8.59
2023-05-05T02:28:56.263Z,8.59
2023-05-05T02:30:18.057Z,8.59
2023-05-05T02:31:39.738Z,8.59
2023-05-05T02:33:03.887Z,8.57
2023-05-05T02:34:28.084Z,8.55
2023-05-05T02:35:49.467Z,8.54
2023-05-05T02:37:12.006Z,8.53
2023-05-05T02:38:36.879Z,8.52
2023-05-05T02:39:59.128Z,8.52
2023-05-05T02:41:24.023Z,8.50
2023-05-05T02:42:46.389Z,8.57
2023-05-05T02:44:08.978Z,9.31
2023-05-05T02:45:31.323Z,10.51
2023-05-05T02:46:57.559Z,11.42
2023-05-05T02:48:21.383Z,11.49
2023-05-05T02:49:43.539Z,11.20
2023-05-05T02:51:07.829Z,10.87
2023-05-05T02:52:33.726Z,10.57
2023-05-05T02:53:55.766Z,10.33
2023-05-05T02:55:18.375Z,10.14
2023-05-05T02:56:42.680Z,9.98
2023-05-05T02:58:04.332Z,9.85
2023-05-05T02:59:27.257Z,9.74
2023-05-05T03:00:49.486Z,9.64
2023-05-05T03:02:15.040Z,9.54
2023-05-05T03:03:37.108Z,9.45
2023-05-05T03:04:58.932Z,9.36
2023-05-05T03:06:21.542Z,9.29
2023-05-05T03:07:43.553Z,9.21
2023-05-05T03:09:06.243Z,9.14
2023-05-05T03:10:35.757Z,9.08
2023-05-05T03:11:59.619Z,9.01
2023-05-05T03:13:21.802Z,8.95
2023-05-05T03:14:43.448Z,8.90
2023-05-05T03:16:06.988Z,8.85
2023-05-05T03:17:28.695Z,8.80
2023-05-05T03:18:53.859Z,8.76
2023-05-05T03:20:15.474Z,8.72
2023-05-05T03:21:38.563Z,8.68
2023-05-05T03:23:03.024Z,8.64
2023-05-05T03:24:24.604Z,8.62
2023-05-05T03:25:52.627Z,8.59
2023-05-05T03:27:26.944Z,8.56
2023-05-05T03:28:48.340Z,8.54
2023-05-05T03:30:14.576Z,8.52
2023-05-05T03:31:41.742Z,8.52
2023-05-05T03:33:22.952Z,8.51
2023-05-05T03:34:45.088Z,8.51
2023-05-05T03:36:08.028Z,8.52
2023-05-05T03:37:31.595Z,8.53
2023-05-05T03:38:53.320Z,8.54
2023-05-05T03:40:17.607Z,8.56
2023-05-05T03:41:39.263Z,8.58
2023-05-05T03:43:03.917Z,8.60
2023-05-05T03:44:26.379Z,8.62
2023-05-05T03:45:48.061Z,8.65
2023-05-05T03:47:10.135Z,8.67
2023-05-05T03:48:39.735Z,8.69
2023-05-05T03:50:02.260Z,8.70
2023-05-05T03:51:24.223Z,8.72
2023-05-05T03:52:46.043Z,8.75
2023-05-05T03:54:17.641Z,8.77
2023-05-05T03:55:42.049Z,8.79
2023-05-05T03:57:13.683Z,8.81
2023-05-05T03:58:36.040Z,8.84
2023-05-05T04:00:00.322Z,8.86
2023-05-05T04:01:23.378Z,8.88
2023-05-05T04:02:45.338Z,8.90
2023-05-05T04:04:10.292Z,8.93
2023-05-05T04:05:32.276Z,8.96
2023-05-05T04:06:53.817Z,8.98
2023-05-05T04:08:22.604Z,9.01
2023-05-05T04:09:44.733Z,9.04
2023-05-05T04:11:09.560Z,9.06
2023-05-05T04:12:31.849Z,9.09
2023-05-05T04:13:54.254Z,9.11
2023-05-05T04:15:18.674Z,9.14
2023-05-05T04:16:40.979Z,9.17
2023-05-05T04:18:03.458Z,9.19
2023-05-05T04:19:25.641Z,9.22
2023-05-05T04:20:56.855Z,9.25
2023-05-05T04:22:21.240Z,9.28
2023-05-05T04:23:53.487Z,9.32
2023-05-05T04:25:15.989Z,9.35
2023-05-05T04:26:38.560Z,9.38
2023-05-05T04:28:00.265Z,9.41
2023-05-05T04:29:29.812Z,9.44
2023-05-05T04:30:51.816Z,9.47
2023-05-05T04:32:13.564Z,9.50
2023-05-05T04:33:40.255Z,9.54
2023-05-05T04:35:02.202Z,9.57
2023-05-05T04:36:23.469Z,9.60
2023-05-05T04:37:54.865Z,9.64
2023-05-05T04:39:19.855Z,9.68
2023-05-05T04:40:41.740Z,9.71
2023-05-05T04:42:04.691Z,9.76
2023-05-05T04:43:26.192Z,9.80
2023-05-05T04:44:47.623Z,9.84
2023-05-05T04:46:10.047Z,9.88
2023-05-05T04:47:31.910Z,9.92
2023-05-05T04:48:53.887Z,9.97
2023-05-05T04:50:15.496Z,10.01
2023-05-05T04:51:37.039Z,10.04
2023-05-05T04:53:01.039Z,10.08
2023-05-05T04:54:23.208Z,10.12
2023-05-05T04:55:44.967Z,10.15
2023-05-05T04:57:07.404Z,10.19
2023-05-05T04:58:29.860Z,10.22
2023-05-05T04:59:54.036Z,10.24
2023-05-05T05:01:15.999Z,10.28
2023-05-05T05:02:38.222Z,10.31
2023-05-05T05:04:00.476Z,10.34
2023-05-05T05:05:30.294Z,10.37
2023-05-05T05:06:59.091Z,10.39
2023-05-05T05:08:23.168Z,10.42
2023-05-05T05:09:46.897Z,10.45
2023-05-05T05:11:13.873Z,10.48
2023-05-05T05:12:42.748Z,10.51
2023-05-05T05:14:08.060Z,10.54
2023-05-05T05:15:30.161Z,10.56
2023-05-05T05:16:52.502Z,10.58
2023-05-05T05:18:21.983Z,10.61
2023-05-05T05:19:44.156Z,10.64
2023-05-05T05:21:08.483Z,10.67
2023-05-05T05:22:30.429Z,10.69
2023-05-05T05:24:03.644Z,10.73
2023-05-05T05:25:33.095Z,10.75
2023-05-05T05:26:57.131Z,10.79
2023-05-05T05:28:26.611Z,10.82
2023-05-05T05:29:59.124Z,10.86
2023-05-05T05:31:20.809Z,10.91
2023-05-05T05:32:45.376Z,10.96
2023-05-05T05:34:07.594Z,11.01
2023-05-05T05:35:29.900Z,11.06
2023-05-05T05:36:51.316Z,11.11
2023-05-05T05:38:21.150Z,11.17
2023-05-05T05:39:46.009Z,11.23
2023-05-05T05:41:15.491Z,11.28
2023-05-05T05:42:44.686Z,11.32
2023-05-05T05:44:07.279Z,11.38
2023-05-05T05:45:29.239Z,11.43
2023-05-05T05:46:55.846Z,11.48
2023-05-05T05:48:18.114Z,11.54
2023-05-05T05:49:47.308Z,11.59
2023-05-05T05:51:11.672Z,11.64
2023-05-05T05:52:33.707Z,11.70
2023-05-05T05:53:58.949Z,11.75
2023-05-05T05:55:23.496Z,11.81
2023-05-05T05:56:45.580Z,11.86
2023-05-05T05:58:07.790Z,11.90
2023-05-05T05:59:32.084Z,11.95
2023-05-05T06:00:53.453Z,12.01
2023-05-05T06:02:28.332Z,12.08
2023-05-05T06:03:50.727Z,12.13
2023-05-05T06:05:13.088Z,12.19
2023-05-05T06:06:36.333Z,12.25
2023-05-05T06:07:58.220Z,12.30
2023-05-05T06:09:20.008Z,12.35
2023-05-05T06:10:42.311Z,12.40
2023-05-05T06:12:09.400Z,12.46
2023-05-05T06:13:31.134Z,12.51
2023-05-05T06:14:52.547Z,12.57
2023-05-05T06:16:14.597Z,12.63
2023-05-05T06:17:36.999Z,12.69
2023-05-05T06:18:58.574Z,12.76
2023-05-05T06:20:20.083Z,12.81
2023-05-05T06:21:44.121Z,12.88
2023-05-05T06:23:06.845Z,12.95
2023-05-05T06:24:32.025Z,13.01
2023-05-05T06:25:55.842Z,13.09
2023-05-05T06:27:17.470Z,13.16
2023-05-05T06:28:39.397Z,13.22
2023-05-05T06:30:01.261Z,13.28
2023-05-05T06:31:22.814Z,13.33
2023-05-05T06:32:44.639Z,13.38
2023-05-05T06:34:12.028Z,13.42
2023-05-05T06:35:34.475Z,13.46
2023-05-05T06:36:56.080Z,13.51
2023-05-05T06:38:24.773Z,13.57
2023-05-05T06:39:46.555Z,13.62
2023-05-05T06:41:08.283Z,13.67
2023-05-05T06:42:32.068Z,13.73
2023-05-05T06:43:53.858Z,13.78
2023-05-05T06:45:15.668Z,13.84
2023-05-05T06:46:37.500Z,13.89
2023-05-05T06:48:01.572Z,13.95
2023-05-05T06:49:23.184Z,14.02
2023-05-05T06:50:47.400Z,14.07
2023-05-05T06:52:09.506Z,14.13
2023-05-05T06:53:45.082Z,14.19
2023-05-05T06:55:07.093Z,14.25
2023-05-05T06:56:29.040Z,14.30
2023-05-05T06:57:58.274Z,14.35
2023-05-05T06:59:20.019Z,14.40
2023-05-05T07:00:42.310Z,14.45
2023-05-05T07:02:04.130Z,14.50
2023-05-05T07:03:25.957Z,14.55
2023-05-05T07:04:52.394Z,14.61
2023-05-05T07:06:14.543Z,14.67
2023-05-05T07:07:38.210Z,14.74
2023-05-05T07:09:02.695Z,14.80
2023-05-05T07:10:24.371Z,14.88
2023-05-05T07:11:46.667Z,14.94
2023-05-05T07:13:08.826Z,15.00
2023-05-05T07:14:30.671Z,15.07
2023-05-05T07:15:52.307Z,15.14
2023-05-05T07:17:14.213Z,15.20
2023-05-05T07:18:36.001Z,15.27
2023-05-05T07:19:57.945Z,15.32
2023-05-05T07:21:19.636Z,15.37
2023-05-05T07:22:41.508Z,15.41
2023-05-05T07:24:05.745Z,15.45
2023-05-05T07:25:27.857Z,15.50
2023-05-05T07:26:49.167Z,15.53
2023-05-05T07:28:11.452Z,15.58
2023-05-05T07:29:32.982Z,15.62
2023-05-05T07:30:54.735Z,15.66
2023-05-05T07:32:19.211Z,15.69
2023-05-05T07:33:41.266Z,15.72
2023-05-05T07:35:03.596Z,15.75
2023-05-05T07:36:25.277Z,15.79
2023-05-05T07:37:49.365Z,15.82
2023-05-05T07:39:21.815Z,15.85
2023-05-05T07:40:43.575Z,15.88
2023-05-05T07:42:06.751Z,15.91
2023-05-05T07:43:28.569Z,15.93
2023-05-05T07:44:50.352Z,15.96
2023-05-05T07:46:19.526Z,16.00
2023-05-05T07:47:41.697Z,16.06
2023-05-05T07:49:03.527Z,16.11
2023-05-05T07:50:28.068Z,16.17
2023-05-05T07:51:54.355Z,16.23
2023-05-05T07:53:18.330Z,16.28
2023-05-05T07:54:42.544Z,16.32
2023-05-05T07:56:04.297Z,16.35
2023-05-05T07:57:26.325Z,16.38
2023-05-05T07:58:48.088Z,16.41
2023-05-05T08:00:10.878Z,16.43
2023-05-05T08:01:38.226Z,16.47
2023-05-05T08:03:00.372Z,16.50
2023-05-05T08:04:22.780Z,16.55
2023-05-05T08:05:45.120Z,16.59
2023-05-05T08:07:08.064Z,16.62
2023-05-05T08:08:29.981Z,16.65
2023-05-05T08:09:51.647Z,16.68
2023-05-05T08:11:21.200Z,16.71
2023-05-05T08:12:45.273Z,16.74
2023-05-05T08:14:07.423Z,16.75
2023-05-05T08:15:33.925Z,16.74
2023-05-05T08:16:57.508Z,16.74
2023-05-05T08:18:21.357Z,16.73
2023-05-05T08:19:42.868Z,16.75
2023-05-05T08:21:16.289Z,16.77
2023-05-05T08:22:49.804Z,16.81
2023-05-05T08:24:13.788Z,16.82
2023-05-05T08:25:35.534Z,16.85
2023-05-05T08:26:56.761Z,16.90
2023-05-05T08:31:28.107Z,17.09
2023-05-05T08:32:52.172Z,17.14
2023-05-05T08:34:16.450Z,17.20
2023-05-05T08:35:38.311Z,17.25
2023-05-05T08:37:11.764Z,17.28
2023-05-05T08:38:33.401Z,17.34
2023-05-05T08:39:54.990Z,17.38
2023-05-05T08:41:16.784Z,17.41
2023-05-05T08:42:39.580Z,17.46
2023-05-05T08:44:06.670Z,17.51
2023-05-05T08:45:28.170Z,17.56
2023-05-05T08:46:50.195Z,17.62
2023-05-05T08:48:12.299Z,17.67
2023-05-05T08:49:36.179Z,17.71
2023-05-05T08:51:01.375Z,17.76
2023-05-05T08:52:24.586Z,17.78
2023-05-05T08:53:47.099Z,17.77
2023-05-05T08:55:16.772Z,17.77
2023-05-05T08:56:40.799Z,17.80
2023-05-05T08:58:06.145Z,17.84
2023-05-05T08:59:30.283Z,17.86
2023-05-05T09:00:51.692Z,17.89
2023-05-05T09:02:23.730Z,17.91
2023-05-05T09:03:47.509Z,17.93
2023-05-05T09:05:10.014Z,17.95
2023-05-05T09:06:33.734Z,17.95
2023-05-05T09:07:55.608Z,17.94
2023-05-05T09:09:36.804Z,17.94
2023-05-05T09:11:12.202Z,17.96
2023-05-05T09:12:36.388Z,18.03
2023-05-05T09:14:09.669Z,18.10
2023-05-05T09:15:34.278Z,18.19
2023-05-05T09:16:56.058Z,18.26
2023-05-05T09:18:20.185Z,18.34
2023-05-05T09:19:42.096Z,18.44
2023-05-05T09:21:03.788Z,18.54
2023-05-05T09:22:25.205Z,18.64
2023-05-05T09:23:47.137Z,18.72
2023-05-05T09:25:09.111Z,18.81
2023-05-05T09:26:30.971Z,18.89
2023-05-05T09:27:52.824Z,18.98
2023-05-05T09:29:14.912Z,19.07
2023-05-05T09:30:36.805Z,19.17
2023-05-05T09:31:58.825Z,19.27
2023-05-05T09:33:20.928Z,19.37
2023-05-05T09:34:42.879Z,19.47
2023-05-05T09:36:04.608Z,19.56
2023-05-05T09:37:26.445Z,19.64
2023-05-05T09:38:50.692Z,19.73
2023-05-05T09:40:12.892Z,19.81
2023-05-05T09:41:34.895Z,19.83
2023-05-05T09:42:56.042Z,19.77
2023-05-05T09:44:20.091Z,19.69
2023-05-05T09:45:44.108Z,19.68
2023-05-05T09:47:22.031Z,19.70
2023-05-05T09:48:49.986Z,19.76
2023-05-05T09:50:14.276Z,19.82
2023-05-05T09:51:38.595Z,19.88
2023-05-05T09:53:00.557Z,19.94
2023-05-05T09:54:27.574Z,19.99
2023-05-05T09:56:00.419Z,20.05
2023-05-05T09:57:27.067Z,20.12
2023-05-05T09:58:48.501Z,20.18
2023-05-05T10:00:11.423Z,20.25
2023-05-05T10:01:44.996Z,20.33
2023-05-05T10:03:11.771Z,20.46
2023-05-05T10:04:45.404Z,20.57
2023-05-05T10:06:07.927Z,20.72
2023-05-05T10:07:30.363Z,20.83
2023-05-05T10:08:54.073Z,20.88
2023-05-05T10:10:16.481Z,20.88
2023-05-05T10:11:38.266Z,20.84
2023-05-05T10:12:59.776Z,20.77
2023-05-05T10:14:29.343Z,20.73
2023-05-05T10:16:09.972Z,20.70
2023-05-05T10:17:33.014Z,20.72
2023-05-05T10:18:56.952Z,20.72
2023-05-05T10:20:18.649Z,20.68
2023-05-05T10:21:47.842Z,20.65
2023-05-05T10:23:17.332Z,20.60
2023-05-05T10:24:38.818Z,20.58
2023-05-05T10:26:08.239Z,20.52
2023-05-05T10:27:32.330Z,20.46
2023-05-05T10:29:06.021Z,20.39
2023-05-05T10:30:30.247Z,20.29
2023-05-05T10:31:52.070Z,20.20
2023-05-05T10:33:30.093Z,20.10
2023-05-05T10:34:53.124Z,19.99
2023-05-05T10:36:26.960Z,19.92
2023-05-05T10:37:50.949Z,19.84
2023-05-05T10:39:15.043Z,19.79
2023-05-05T10:40:39.453Z,19.73
2023-05-05T10:42:02.314Z,19.68
2023-05-05T10:43:24.453Z,19.64
2023-05-05T10:44:46.017Z,19.64
2023-05-05T10:46:07.816Z,19.63
2023-05-05T10:47:31.758Z,19.63
2023-05-05T10:49:01.015Z,19.62
2023-05-05T10:50:22.678Z,19.64
2023-05-05T10:51:44.343Z,19.65
2023-05-05T10:53:13.906Z,19.65
2023-05-05T10:54:37.821Z,19.68
2023-05-05T10:55:59.910Z,19.73
2023-05-05T10:57:22.047Z,19.76
2023-05-05T10:58:55.387Z,19.80
2023-05-05T11:00:28.418Z,19.83
2023-05-05T11:02:01.398Z,19.89
2023-05-05T11:03:23.890Z,20.00
2023-05-05T11:04:45.461Z,20.15
2023-05-05T11:06:12.442Z,20.29
2023-05-05T11:07:46.139Z,20.45
2023-05-05T11:09:15.215Z,20.68
2023-05-05T11:10:50.897Z,20.89
2023-05-05T11:12:13.820Z,21.04
2023-05-05T11:13:49.505Z,21.23
2023-05-05T11:15:11.317Z,21.45
2023-05-05T11:16:32.889Z,21.64
2023-05-05T11:18:08.964Z,21.85
2023-05-05T11:19:42.389Z,22.05
2023-05-05T11:21:04.345Z,22.29
2023-05-05T11:22:28.040Z,22.48
2023-05-05T11:24:00.955Z,22.66
2023-05-05T11:25:24.963Z,22.83
2023-05-05T11:26:46.861Z,22.97
2023-05-05T11:28:39.954Z,23.09
2023-05-05T11:30:33.097Z,23.20
2023-05-05T11:32:04.801Z,23.20
2023-05-05T11:33:45.532Z,23.11
2023-05-05T11:35:21.884Z,22.96
2023-05-05T11:36:57.124Z,22.79
2023-05-05T11:38:38.253Z,22.55
2023-05-05T11:39:59.902Z,22.30
2023-05-05T11:41:21.728Z,22.08
2023-05-05T11:42:50.845Z,21.93
2023-05-05T11:44:27.024Z,21.80
2023-05-05T11:46:00.312Z,21.70
2023-05-05T11:47:24.800Z,21.57
2023-05-05T11:48:58.209Z,21.40
2023-05-05T11:50:30.200Z,21.24
2023-05-05T11:51:56.065Z,21.05
2023-05-05T11:53:18.247Z,20.85
2023-05-05T11:54:41.793Z,20.66
2023-05-05T11:56:05.842Z,20.50
2023-05-05T11:57:27.731Z,20.39
2023-05-05T11:59:10.998Z,20.29
2023-05-05T12:00:42.308Z,20.19
2023-05-05T12:02:03.960Z,20.12
2023-05-05T12:03:38.062Z,20.02
2023-05-05T12:05:04.828Z,19.91
2023-05-05T12:06:46.020Z,19.79
2023-05-05T12:08:08.374Z,19.70
2023-05-05T12:09:29.775Z,19.62
2023-05-05T12:11:06.160Z,19.55
2023-05-05T12:12:28.594Z,19.52
2023-05-05T12:13:49.947Z,19.50
2023-05-05T12:15:14.405Z,19.49
2023-05-05T12:16:38.541Z,19.47
2023-05-05T12:18:02.385Z,19.43
2023-05-05T12:19:33.206Z,19.37
2023-05-05T12:20:54.607Z,19.35
2023-05-05T12:22:19.450Z,19.33
2023-05-05T12:23:41.361Z,19.34
2023-05-05T12:25:02.627Z,19.35
2023-05-05T12:26:25.236Z,19.37
2023-05-05T12:27:49.650Z,19.40
2023-05-05T12:29:11.702Z,19.42
2023-05-05T12:30:33.641Z,19.43
2023-05-05T12:31:57.967Z,19.45
2023-05-05T12:33:20.578Z,19.44
2023-05-05T12:34:57.245Z,19.42
2023-05-05T12:36:19.413Z,19.40
2023-05-05T12:37:43.485Z,19.40
2023-05-05T12:39:05.520Z,19.44
2023-05-05T12:40:27.085Z,19.45
2023-05-05T12:41:50.833Z,19.45
2023-05-05T12:43:17.482Z,19.44
2023-05-05T12:44:43.580Z,19.42
2023-05-05T12:46:07.676Z,19.38
2023-05-05T12:47:36.935Z,19.37
2023-05-05T12:49:12.510Z,19.36
2023-05-05T12:50:34.581Z,19.35
2023-05-05T12:51:56.458Z,19.30
2023-05-05T12:53:20.784Z,19.26
2023-05-05T12:54:44.758Z,19.25
2023-05-05T12:56:06.940Z,19.25
2023-05-05T12:57:30.836Z,19.22
2023-05-05T12:58:55.073Z,19.19
2023-05-05T13:00:18.063Z,19.20
2023-05-05T13:01:42.192Z,19.19
2023-05-05T13:03:06.545Z,19.17
2023-05-05T13:04:30.636Z,19.18
2023-05-05T13:05:52.099Z,19.21
2023-05-05T13:07:21.155Z,19.23
2023-05-05T13:08:54.580Z,19.24
2023-05-05T13:10:16.850Z,19.25
2023-05-05T13:11:38.763Z,19.26
2023-05-05T13:13:00.192Z,19.27
2023-05-05T13:14:25.050Z,19.34
2023-05-05T13:16:00.892Z,19.51
2023-05-05T13:17:34.707Z,19.68
2023-05-05T13:19:08.440Z,19.83
2023-05-05T13:20:29.969Z,19.92
2023-05-05T13:21:51.643Z,19.99
2023-05-05T13:23:14.028Z,20.03
2023-05-05T13:24:49.762Z,20.05
2023-05-05T13:26:13.597Z,20.05
2023-05-05T13:27:37.682Z,20.03
2023-05-05T13:28:59.508Z,20.02
2023-05-05T13:30:21.473Z,20.02
2023-05-05T13:31:50.578Z,20.04
2023-05-05T13:33:14.824Z,20.10
2023-05-05T13:34:39.284Z,20.24
2023-05-05T13:36:08.879Z,20.47
2023-05-05T13:37:30.634Z,20.71
2023-05-05T13:38:54.673Z,20.93
2023-05-05T13:40:18.930Z,21.12
2023-05-05T13:41:40.727Z,21.23
2023-05-05T13:43:14.141Z,21.27
2023-05-05T13:44:37.896Z,21.28
2023-05-05T13:46:08.700Z,21.31
2023-05-05T13:47:39.062Z,21.34
2023-05-05T13:49:12.677Z,21.34
2023-05-05T13:50:36.540Z,21.30
2023-05-05T13:51:58.529Z,21.27
2023-05-05T13:53:40.210Z,21.22
2023-05-05T13:55:01.750Z,21.20
2023-05-05T13:56:37.979Z,21.26
2023-05-05T13:58:02.020Z,21.41
2023-05-05T13:59:25.789Z,21.58
2023-05-05T14:00:55.227Z,21.79
2023-05-05T14:02:24.925Z,22.03
2023-05-05T14:04:13.858Z,22.29
2023-05-05T14:05:42.800Z,22.52
2023-05-05T14:07:04.809Z,22.69
2023-05-05T14:08:46.059Z,22.80
2023-05-05T14:10:08.072Z,22.85
2023-05-05T14:11:31.518Z,22.86
2023-05-05T14:12:53.391Z,22.86
2023-05-05T14:14:16.308Z,22.88
2023-05-05T14:15:39.927Z,22.89
2023-05-05T14:17:01.983Z,22.86
2023-05-05T14:18:24.015Z,22.84
2023-05-05T14:19:45.726Z,22.81
2023-05-05T14:21:12.507Z,22.79
2023-05-05T14:22:38.387Z,22.81
2023-05-05T14:23:59.995Z,22.84
2023-05-05T14:25:24.673Z,22.87
2023-05-05T14:26:48.952Z,22.90
2023-05-05T14:28:11.528Z,22.96
2023-05-05T14:29:35.291Z,23.03
2023-05-05T14:30:57.198Z,23.05
2023-05-05T14:32:27.235Z,23.10
2023-05-05T14:33:56.571Z,23.17
2023-05-05T14:35:18.645Z,23.24
2023-05-05T14:36:41.149Z,23.32
2023-05-05T14:38:07.536Z,23.33
2023-05-05T14:39:31.888Z,23.28
2023-05-05T14:40:55.838Z,23.18
2023-05-05T14:42:17.882Z,23.07
2023-05-05T14:43:51.298Z,22.94
2023-05-05T14:45:21.189Z,22.71
2023-05-05T14:46:54.338Z,22.40
2023-05-05T14:48:16.661Z,22.15
2023-05-05T14:49:38.620Z,21.88
2023-05-05T14:51:02.999Z,21.61
2023-05-05T14:52:24.897Z,21.39
2023-05-05T14:53:58.506Z,21.21
2023-05-05T14:55:24.873Z,21.01
2023-05-05T14:56:46.982Z,20.84
2023-05-05T14:58:09.217Z,20.69
2023-05-05T14:59:33.556Z,20.59
2023-05-05T15:01:02.425Z,20.52
2023-05-05T15:02:24.509Z,20.47
2023-05-05T15:03:46.233Z,20.41
2023-05-05T15:05:08.418Z,20.30
2023-05-05T15:06:31.146Z,20.22
2023-05-05T15:07:52.517Z,20.19
2023-05-05T15:09:26.216Z,20.22
2023-05-05T15:10:48.108Z,20.32
2023-05-05T15:12:12.328Z,20.38
2023-05-05T15:13:45.935Z,20.43
2023-05-05T15:15:08.954Z,20.47
2023-05-05T15:16:31.719Z,20.50
2023-05-05T15:17:54.211Z,20.55
2023-05-05T15:19:27.713Z,20.62
2023-05-05T15:20:49.241Z,20.70
2023-05-05T15:22:13.563Z,20.80
2023-05-05T15:23:44.946Z,20.88
2023-05-05T15:25:09.788Z,20.91
2023-05-05T15:26:34.511Z,20.96
2023-05-05T15:28:10.924Z,21.02
2023-05-05T15:29:32.523Z,21.10
2023-05-05T15:30:54.062Z,21.16
2023-05-05T15:32:16.089Z,21.22
2023-05-05T15:33:38.737Z,21.25
2023-05-05T15:35:00.221Z,21.23
2023-05-05T15:36:30.092Z,21.17
2023-05-05T15:37:54.161Z,21.10
2023-05-05T15:39:23.367Z,20.98
2023-05-05T15:40:50.344Z,20.87
2023-05-05T15:42:12.540Z,20.75
2023-05-05T15:43:34.260Z,20.66
2023-05-05T15:44:55.539Z,20.59
2023-05-05T15:46:17.532Z,20.55
2023-05-05T15:47:41.542Z,20.53
2023-05-05T15:49:03.163Z,20.49
2023-05-05T15:50:24.947Z,20.43
2023-05-05T15:51:48.011Z,20.37
2023-05-05T15:53:10.109Z,20.29
2023-05-05T15:54:38.852Z,20.24
2023-05-05T15:56:00.431Z,20.20
2023-05-05T15:57:24.528Z,20.17
2023-05-05T15:58:45.880Z,20.13
2023-05-05T16:00:07.892Z,20.07
2023-05-05T16:01:29.361Z,19.99
2023-05-05T16:02:53.205Z,19.92
2023-05-05T16:04:22.234Z,19.78
2023-05-05T16:05:44.183Z,19.63
2023-05-05T16:07:05.940Z,19.44
2023-05-05T16:08:27.813Z,19.24
2023-05-05T16:09:49.378Z,19.09
2023-05-05T16:11:19.460Z,18.91
2023-05-05T16:12:44.460Z,18.74
2023-05-05T16:14:18.522Z,18.58
2023-05-05T16:15:49.698Z,18.36
2023-05-05T16:17:11.692Z,18.20
2023-05-05T16:18:33.528Z,18.07
2023-05-05T16:20:02.702Z,17.95
2023-05-05T16:21:36.653Z,17.75
2023-05-05T16:22:58.089Z,17.58
2023-05-05T16:24:19.958Z,17.42
2023-05-05T16:25:41.734Z,17.28
2023-05-05T16:27:03.105Z,17.17
2023-05-05T16:28:24.806Z,17.07
2023-05-05T16:29:49.257Z,16.96
2023-05-05T16:31:11.267Z,16.86
2023-05-05T16:32:40.543Z,16.77
2023-05-05T16:34:02.219Z,16.67
2023-05-05T16:35:33.700Z,16.57
2023-05-05T16:36:56.635Z,16.43
2023-05-05T16:38:18.214Z,16.29
2023-05-05T16:39:41.166Z,16.16
2023-05-05T16:41:12.638Z,16.02
2023-05-05T16:42:34.351Z,15.93
2023-05-05T16:43:58.321Z,15.83
2023-05-05T16:45:22.525Z,15.74
2023-05-05T16:46:44.522Z,15.64
2023-05-05T16:48:08.889Z,15.54
2023-05-05T16:49:31.247Z,15.42
2023-05-05T16:50:52.719Z,15.32
2023-05-05T16:52:14.744Z,15.23
2023-05-05T16:53:40.601Z,15.14
2023-05-05T16:55:04.851Z,15.05
2023-05-05T16:56:26.498Z,14.98
2023-05-05T16:57:50.444Z,14.92
2023-05-05T16:59:12.928Z,14.83
2023-05-05T17:00:54.439Z,14.77
2023-05-05T17:02:35.499Z,14.70
2023-05-05T17:04:20.112Z,14.64
2023-05-05T17:05:41.927Z,14.58
2023-05-05T17:07:03.380Z,14.53
2023-05-05T17:08:25.240Z,14.46
2023-05-05T17:09:47.270Z,14.40
2023-05-05T17:11:10.977Z,14.35
2023-05-05T17:12:33.252Z,14.29
2023-05-05T17:14:06.873Z,14.23
2023-05-05T17:15:30.835Z,14.17
2023-05-05T17:16:54.276Z,14.10
2023-05-05T17:18:16.446Z,14.05
2023-05-05T17:19:38.363Z,13.98
2023-05-05T17:21:07.776Z,13.91
2023-05-05T17:22:29.792Z,13.84
2023-05-05T17:23:53.311Z,13.77
2023-05-05T17:25:15.458Z,13.69
2023-05-05T17:26:38.776Z,13.63
2023-05-05T17:28:00.248Z,13.56
2023-05-05T17:29:23.301Z,13.49
2023-05-05T17:30:45.112Z,13.41
2023-05-05T17:32:06.927Z,13.34
2023-05-05T17:33:28.791Z,13.27
2023-05-05T17:34:50.658Z,13.20
2023-05-05T17:36:12.816Z,13.13
2023-05-05T17:37:41.927Z,13.06
2023-05-05T17:39:15.179Z,12.98
2023-05-05T17:40:39.756Z,12.91
2023-05-05T17:42:01.213Z,12.84
2023-05-05T17:43:22.968Z,12.78
2023-05-05T17:44:46.358Z,12.73
2023-05-05T17:46:09.461Z,12.68
2023-05-05T17:47:31.516Z,12.62
2023-05-05T17:49:00.850Z,12.57
2023-05-05T17:50:22.747Z,12.51
2023-05-05T17:51:44.257Z,12.45
2023-05-05T17:53:05.884Z,12.41
2023-05-05T17:54:27.980Z,12.37
2023-05-05T17:55:49.652Z,12.32
2023-05-05T17:57:23.438Z,12.28
2023-05-05T17:58:44.956Z,12.23
2023-05-05T18:00:08.994Z,12.19
2023-05-05T18:01:36.758Z,12.14
2023-05-05T18:02:57.951Z,12.10
2023-05-05T18:04:19.877Z,12.07
2023-05-05T18:05:44.025Z,12.02
2023-05-05T18:07:08.437Z,12.00
2023-05-05T18:08:30.865Z,11.97
2023-05-05T18:09:55.253Z,11.94
2023-05-05T18:11:28.766Z,11.92
2023-05-05T18:12:50.735Z,11.89
2023-05-05T18:14:24.502Z,11.86
2023-05-05T18:15:46.524Z,11.85
2023-05-05T18:17:08.123Z,11.83
2023-05-05T18:18:29.922Z,11.82
2023-05-05T18:19:51.684Z,11.80
2023-05-05T18:21:13.163Z,11.78
2023-05-05T18:22:34.863Z,11.76
2023-05-05T18:24:19.249Z,11.73
2023-05-05T18:25:45.179Z,11.70
2023-05-05T18:27:09.841Z,11.68